Time;durP1;ratioP1;P1;durP2;ratioP2;P2;SDS_P1;SDS_P2;PMS_P1;PMS_P2;Temp;Humidity;BMP_temperature;BMP_pressure;BME280_temperature;BME280_humidity;BME280_pressure;Samples;Min_cycle;Max_cycle;Signal;HPM_P1;HPM_P2
2021/01/10 00:00:20;;;;;;;23.70;9.50;;;2.30;96.00;;;;;;5094148;28;20039;-71
2021/01/10 00:02:48;;;;;;;17.85;8.45;;;2.20;95.60;;;;;;5100315;28;20445;-71
2021/01/10 00:05:23;;;;;;;14.30;7.82;;;2.30;95.80;;;;;;5097265;28;20039;-71
2021/01/10 00:07:50;;;;;;;15.82;6.97;;;2.20;95.80;;;;;;5095783;28;20052;-72
2021/01/10 00:10:19;;;;;;;13.33;7.30;;;2.30;95.80;;;;;;5096802;28;20055;-71
2021/01/10 00:12:46;;;;;;;14.73;6.90;;;2.30;95.70;;;;;;5100578;28;20048;-71
2021/01/10 00:15:15;;;;;;;14.75;7.25;;;2.00;95.80;;;;;;5094257;28;20511;-71
2021/01/10 00:17:44;;;;;;;15.75;7.47;;;2.30;95.80;;;;;;5100445;28;20146;-71
2021/01/10 00:20:11;;;;;;;12.98;7.00;;;2.30;95.50;;;;;;5094808;28;20047;-72
2021/01/10 00:22:38;;;;;;;14.85;7.18;;;2.60;95.60;;;;;;5096096;28;20059;-72
2021/01/10 00:25:07;;;;;;;13.82;6.65;;;2.50;95.40;;;;;;5093414;28;20083;-71
2021/01/10 00:27:34;;;;;;;15.57;6.80;;;2.20;95.40;;;;;;5093772;28;20392;-71
2021/01/10 00:30:03;;;;;;;13.18;6.65;;;2.40;95.80;;;;;;5099972;28;20154;-72
2021/01/10 00:32:30;;;;;;;12.82;6.70;;;2.30;95.70;;;;;;5094264;28;20540;-72
2021/01/10 00:34:56;;;;;;;13.48;6.50;;;2.50;95.50;;;;;;5100156;28;20142;-72
2021/01/10 00:37:22;;;;;;;14.45;6.68;;;2.50;95.30;;;;;;5102007;28;20079;-72
2021/01/10 00:39:49;;;;;;;13.52;7.35;;;2.30;95.50;;;;;;5096106;28;20051;-71
2021/01/10 00:42:16;;;;;;;14.95;6.75;;;2.30;95.50;;;;;;5088599;28;20067;-71
2021/01/10 00:44:44;;;;;;;12.43;6.25;;;2.60;95.40;;;;;;5098370;28;20136;-72
2021/01/10 00:47:11;;;;;;;11.65;6.55;;;2.40;95.40;;;;;;5096249;28;20457;-71
2021/01/10 00:49:38;;;;;;;11.57;6.82;;;2.40;95.40;;;;;;5100120;28;20467;-72
2021/01/10 00:52:06;;;;;;;15.45;6.75;;;2.50;95.80;;;;;;5096682;28;20055;-71
2021/01/10 00:54:33;;;;;;;12.02;6.53;;;2.30;95.70;;;;;;5094999;28;20056;-71
2021/01/10 00:56:59;;;;;;;14.23;6.72;;;2.40;95.40;;;;;;5098086;28;20047;-79
2021/01/10 00:59:26;;;;;;;12.90;6.50;;;2.50;95.50;;;;;;5096743;28;20039;-71
2021/01/10 01:01:52;;;;;;;14.30;6.35;;;2.20;95.30;;;;;;5102993;28;20078;-74
2021/01/10 01:04:19;;;;;;;11.82;6.13;;;2.30;95.60;;;;;;5102462;28;20052;-72
2021/01/10 01:06:46;;;;;;;15.40;6.97;;;2.30;95.70;;;;;;5095881;28;20044;-73
2021/01/10 01:09:13;;;;;;;14.48;7.13;;;2.10;95.60;;;;;;5103126;28;20071;-70
2021/01/10 01:11:40;;;;;;;14.77;7.28;;;2.30;95.60;;;;;;5098598;28;20082;-71
2021/01/10 01:14:08;;;;;;;15.52;7.30;;;2.20;95.60;;;;;;5099287;28;20570;-69
2021/01/10 01:16:37;;;;;;;14.15;6.50;;;2.10;95.60;;;;;;5098642;28;20054;-70
2021/01/10 01:19:04;;;;;;;12.52;6.65;;;2.10;96.00;;;;;;5094601;28;20059;-70
2021/01/10 01:21:30;;;;;;;13.07;7.22;;;2.00;96.20;;;;;;5098383;28;20039;-69
2021/01/10 01:23:57;;;;;;;12.77;6.60;;;1.80;96.40;;;;;;5095140;28;20043;-69
2021/01/10 01:26:25;;;;;;;16.55;7.40;;;1.90;96.50;;;;;;5095383;28;20433;-69
2021/01/10 01:28:52;;;;;;;14.05;6.63;;;1.70;96.70;;;;;;5100616;28;20136;-69
2021/01/10 01:31:24;;;;;;;11.93;6.55;;;1.90;97.10;;;;;;5096517;28;20075;-70
2021/01/10 01:33:52;;;;;;;13.48;6.72;;;1.80;96.90;;;;;;5097068;28;20040;-69
2021/01/10 01:36:24;;;;;;;12.38;6.80;;;1.90;97.20;;;;;;5103961;28;20051;-68
2021/01/10 01:38:52;;;;;;;11.70;6.53;;;1.80;97.10;;;;;;5100181;28;20056;-69
2021/01/10 01:41:19;;;;;;;15.63;6.97;;;1.80;97.00;;;;;;5105852;27;20069;-69
2021/01/10 01:43:45;;;;;;;10.93;6.25;;;1.60;97.00;;;;;;5102603;28;20061;-69
2021/01/10 01:46:30;;;;;;;14.13;6.53;;;1.80;97.50;;;;;;5100239;28;20079;-69
2021/01/10 01:48:59;;;;;;;15.45;6.90;;;1.90;97.40;;;;;;5100312;28;20048;-70
2021/01/10 01:51:26;;;;;;;13.98;6.90;;;1.70;97.00;;;;;;5105154;27;20480;-70
2021/01/10 01:53:53;;;;;;;14.35;6.93;;;1.80;97.40;;;;;;5112084;28;20494;-70
2021/01/10 01:56:20;;;;;;;17.73;8.30;;;1.70;97.30;;;;;;5107497;28;20035;-69
2021/01/10 01:59:16;;;;;;;17.02;7.13;;;1.60;97.50;;;;;;5106170;27;20051;-69
2021/01/10 02:01:42;;;;;;;14.25;7.30;;;1.80;97.60;;;;;;5086995;28;20072;-69
2021/01/10 02:04:11;;;;;;;14.65;6.85;;;1.60;97.60;;;;;;5105599;28;20061;-69
2021/01/10 02:06:48;;;;;;;14.95;7.50;;;1.50;97.70;;;;;;5109942;28;20086;-70
2021/01/10 02:09:16;;;;;;;18.30;7.75;;;1.60;98.00;;;;;;5109526;27;20059;-70
2021/01/10 02:11:44;;;;;;;16.40;7.97;;;1.40;98.00;;;;;;5107567;28;20460;-70
2021/01/10 02:14:14;;;;;;;16.83;7.05;;;1.40;98.00;;;;;;5107789;28;20502;-70
2021/01/10 02:16:42;;;;;;;12.40;6.90;;;1.60;98.10;;;;;;5109024;28;20135;-69
2021/01/10 02:19:22;;;;;;;14.88;7.00;;;1.40;98.10;;;;;;5108505;28;20071;-69
2021/01/10 02:21:52;;;;;;;15.00;7.32;;;1.40;98.10;;;;;;5112438;28;20043;-70
2021/01/10 02:24:19;;;;;;;14.30;7.27;;;1.40;98.50;;;;;;5109022;28;20125;-74
2021/01/10 02:26:47;;;;;;;13.98;6.85;;;1.60;98.30;;;;;;5105878;28;20312;-69
2021/01/10 02:29:14;;;;;;;13.88;6.57;;;1.40;98.70;;;;;;5110027;28;20044;-69
2021/01/10 02:31:42;;;;;;;14.65;6.88;;;1.40;98.40;;;;;;5102273;27;20047;-69
2021/01/10 02:34:11;;;;;;;14.07;6.70;;;1.30;98.50;;;;;;5109128;28;20475;-69
2021/01/10 02:37:02;;;;;;;14.18;6.57;;;1.20;98.80;;;;;;5106523;28;20504;-68
2021/01/10 02:39:43;;;;;;;13.70;6.28;;;1.30;98.70;;;;;;5106797;28;20078;-68
2021/01/10 02:42:19;;;;;;;13.93;6.78;;;1.20;99.30;;;;;;5099141;28;20240;-69
2021/01/10 02:45:08;;;;;;;14.95;7.05;;;1.20;99.50;;;;;;5111285;28;20113;-69
2021/01/10 02:47:36;;;;;;;12.35;6.15;;;1.20;99.80;;;;;;5106873;28;20100;-69
2021/01/10 02:50:07;;;;;;;11.75;6.63;;;1.40;99.30;;;;;;5110483;27;20701;-68
2021/01/10 02:52:34;;;;;;;12.20;6.00;;;1.10;99.10;;;;;;5112430;28;20064;-69
2021/01/10 02:55:01;;;;;;;12.48;6.88;;;1.40;99.50;;;;;;5110316;28;20051;-69
2021/01/10 02:57:34;;;;;;;14.57;6.93;;;1.20;99.70;;;;;;5104014;28;20206;-69
2021/01/10 03:00:04;;;;;;;11.60;6.32;;;0.90;99.90;;;;;;5109706;28;20040;-69
2021/01/10 03:02:32;;;;;;;15.18;6.70;;;1.30;99.90;;;;;;5108074;28;20079;-69
2021/01/10 03:08:34;;;;;;;15.80;7.18;;;1.10;99.90;;;;;;5107711;28;20074;-69
2021/01/10 03:11:01;;;;;;;10.70;5.97;;;1.40;99.70;;;;;;5104566;28;20079;-69
2021/01/10 03:13:27;;;;;;;14.73;7.10;;;1.40;99.90;;;;;;5110498;28;20055;-70
2021/01/10 03:15:54;;;;;;;14.48;6.93;;;0.90;99.90;;;;;;5107694;28;20059;-70
2021/01/10 03:18:22;;;;;;;14.77;7.20;;;0.60;99.90;;;;;;5108246;28;20043;-69
2021/01/10 03:20:49;;;;;;;14.18;6.70;;;0.70;99.90;;;;;;5105571;28;20055;-70
2021/01/10 03:23:17;;;;;;;14.23;7.10;;;0.70;99.90;;;;;;5108202;28;20100;-69
2021/01/10 03:25:43;;;;;;;19.65;7.55;;;0.80;99.90;;;;;;5110450;28;20096;-69
2021/01/10 03:28:10;;;;;;;12.60;6.90;;;0.70;99.90;;;;;;5110343;28;20096;-70
2021/01/10 03:30:37;;;;;;;13.00;6.78;;;0.90;99.90;;;;;;5109352;28;20083;-69
2021/01/10 03:33:04;;;;;;;13.25;7.22;;;0.80;99.90;;;;;;5108152;28;20122;-69
2021/01/10 03:35:34;;;;;;;14.25;6.72;;;0.90;99.90;;;;;;5108380;28;20051;-70
2021/01/10 03:38:04;;;;;;;16.17;6.75;;;0.70;99.90;;;;;;5108237;28;20067;-69
2021/01/10 03:40:31;;;;;;;14.80;6.47;;;0.90;99.90;;;;;;5101762;28;20448;-70
2021/01/10 03:42:58;;;;;;;12.43;6.20;;;0.80;99.90;;;;;;5108419;28;20047;-69
2021/01/10 03:45:24;;;;;;;14.45;6.30;;;1.10;99.90;;;;;;5104399;28;20122;-70
2021/01/10 03:47:51;;;;;;;13.63;6.15;;;1.20;99.90;;;;;;5111736;28;20135;-70
2021/01/10 03:50:17;;;;;;;13.38;6.30;;;1.20;99.90;;;;;;5105818;28;20498;-70
2021/01/10 03:52:43;;;;;;;10.48;6.18;;;1.20;99.90;;;;;;5100792;28;20081;-69
2021/01/10 03:55:10;;;;;;;11.38;5.82;;;1.40;99.90;;;;;;5109707;28;20044;-69
2021/01/10 03:57:38;;;;;;;14.18;6.28;;;1.00;99.90;;;;;;5106240;28;20043;-69
2021/01/10 04:00:10;;;;;;;12.40;6.55;;;1.20;99.90;;;;;;5107391;28;20494;-70
2021/01/10 04:02:37;;;;;;;12.85;6.50;;;1.20;99.90;;;;;;5105791;28;20104;-69
2021/01/10 04:05:05;;;;;;;12.38;6.45;;;0.80;99.90;;;;;;5108712;28;20139;-69
2021/01/10 04:07:32;;;;;;;12.77;6.00;;;1.00;99.90;;;;;;5112226;28;20421;-69
2021/01/10 04:09:58;;;;;;;12.40;6.28;;;1.10;99.90;;;;;;5104503;28;20051;-69
2021/01/10 04:12:24;;;;;;;13.23;6.07;;;1.20;99.90;;;;;;5103880;28;20088;-69
2021/01/10 04:14:55;;;;;;;11.05;5.72;;;1.10;99.90;;;;;;5109501;28;20040;-70
2021/01/10 04:17:25;;;;;;;14.75;6.70;;;1.30;99.90;;;;;;5105981;28;20040;-69
2021/01/10 04:19:55;;;;;;;13.07;5.65;;;1.40;99.90;;;;;;5104298;28;20075;-68
2021/01/10 04:22:22;;;;;;;12.30;5.57;;;1.30;99.90;;;;;;5108163;28;20044;-68
2021/01/10 04:24:51;;;;;;;13.05;6.25;;;1.30;99.90;;;;;;5108352;28;20297;-69
2021/01/10 04:27:20;;;;;;;12.13;5.97;;;0.90;99.90;;;;;;5106018;28;20065;-69
2021/01/10 04:29:52;;;;;;;13.63;6.80;;;0.90;99.90;;;;;;5105278;28;20067;-68
2021/01/10 04:32:18;;;;;;;10.73;5.65;;;0.50;99.90;;;;;;5107408;28;20048;-69
2021/01/10 04:34:45;;;;;;;13.27;6.43;;;0.80;99.90;;;;;;5107245;28;20458;-70
2021/01/10 04:37:11;;;;;;;11.82;5.95;;;0.70;99.90;;;;;;5103098;28;20040;-70
2021/01/10 04:39:37;;;;;;;12.43;5.90;;;1.20;99.90;;;;;;5104231;28;20540;-70
2021/01/10 04:42:04;;;;;;;11.27;6.25;;;1.20;99.90;;;;;;5108151;28;20051;-70
2021/01/10 04:44:31;;;;;;;11.80;6.07;;;1.00;99.90;;;;;;5105060;28;20086;-69
2021/01/10 04:46:58;;;;;;;13.63;6.60;;;0.50;99.90;;;;;;5106694;28;20468;-70
2021/01/10 04:49:27;;;;;;;12.43;6.43;;;0.90;99.90;;;;;;5103635;28;20058;-70
2021/01/10 04:51:53;;;;;;;13.13;6.10;;;0.80;99.90;;;;;;5107084;28;20395;-69
2021/01/10 04:54:21;;;;;;;11.95;6.05;;;0.70;99.90;;;;;;5107921;28;20055;-70
2021/01/10 04:56:49;;;;;;;11.68;5.80;;;0.80;99.90;;;;;;5110372;28;20156;-72
2021/01/10 04:59:17;;;;;;;11.45;5.60;;;1.10;99.90;;;;;;5107447;28;20052;-70
2021/01/10 05:01:50;;;;;;;13.23;6.20;;;0.80;99.90;;;;;;5106644;28;20090;-69
2021/01/10 05:04:17;;;;;;;10.48;5.45;;;0.40;99.90;;;;;;5098698;28;20047;-69
2021/01/10 05:06:45;;;;;;;10.40;5.47;;;0.80;99.90;;;;;;5105253;28;20161;-70
2021/01/10 05:09:12;;;;;;;13.88;6.18;;;0.50;99.90;;;;;;5112495;28;20534;-70
2021/01/10 05:11:38;;;;;;;10.45;6.05;;;0.70;99.90;;;;;;5113273;28;20111;-69
2021/01/10 05:14:05;;;;;;;10.90;5.88;;;0.60;99.90;;;;;;5110779;28;20051;-70
2021/01/10 05:16:35;;;;;;;13.30;6.72;;;0.30;99.90;;;;;;5106186;28;20105;-70
2021/01/10 05:19:03;;;;;;;13.43;6.40;;;0.60;99.90;;;;;;5110797;28;20072;-69
2021/01/10 05:21:30;;;;;;;11.30;5.18;;;0.40;99.90;;;;;;5112455;28;20117;-69
2021/01/10 05:23:58;;;;;;;12.65;5.97;;;0.50;99.90;;;;;;5108285;28;20046;-70
2021/01/10 05:26:33;;;;;;;12.57;5.88;;;0.80;99.90;;;;;;5110255;28;20047;-70
2021/01/10 05:29:06;;;;;;;10.30;5.68;;;1.00;99.90;;;;;;5108924;28;20061;-69
2021/01/10 05:31:34;;;;;;;10.35;5.60;;;0.50;99.90;;;;;;5103836;28;20047;-70
2021/01/10 05:34:02;;;;;;;10.35;5.80;;;0.70;99.90;;;;;;5109026;28;20444;-69
2021/01/10 05:36:30;;;;;;;9.77;5.53;;;0.90;99.90;;;;;;5106137;28;20039;-69
2021/01/10 05:39:12;;;;;;;10.60;5.53;;;0.90;99.80;;;;;;5111003;28;20505;-70
2021/01/10 05:41:42;;;;;;;11.13;5.80;;;0.50;99.90;;;;;;5106583;28;20093;-70
2021/01/10 05:44:08;;;;;;;12.05;5.25;;;0.60;99.90;;;;;;5114733;28;20044;-70
2021/01/10 05:46:34;;;;;;;11.23;5.60;;;0.80;99.80;;;;;;5109712;28;20134;-70
2021/01/10 05:49:01;;;;;;;11.20;5.63;;;0.80;99.60;;;;;;5103935;28;20082;-69
2021/01/10 05:51:31;;;;;;;11.70;5.38;;;1.00;99.30;;;;;;5115775;28;20117;-70
2021/01/10 05:53:58;;;;;;;12.95;6.10;;;0.90;99.30;;;;;;5109387;28;20096;-70
2021/01/10 05:56:24;;;;;;;10.65;5.90;;;1.00;99.90;;;;;;5102842;28;20305;-70
2021/01/10 05:58:55;;;;;;;13.38;5.88;;;0.90;98.80;;;;;;5107978;28;20077;-70
2021/01/10 06:01:23;;;;;;;11.73;5.75;;;1.00;98.70;;;;;;5107393;28;20463;-69
2021/01/10 06:03:52;;;;;;;10.68;5.93;;;0.90;98.80;;;;;;5112523;28;20050;-70
2021/01/10 06:06:19;;;;;;;10.98;5.63;;;0.80;98.60;;;;;;5112737;28;20043;-70
2021/01/10 06:08:47;;;;;;;12.30;5.70;;;0.80;98.40;;;;;;5107120;28;20123;-69
2021/01/10 06:11:16;;;;;;;12.07;5.30;;;0.90;98.40;;;;;;5113961;28;20471;-70
2021/01/10 06:13:56;;;;;;;11.15;5.07;;;0.90;98.70;;;;;;5107186;28;20044;-70
2021/01/10 06:16:32;;;;;;;10.25;5.38;;;0.50;98.70;;;;;;5108409;28;20086;-69
2021/01/10 06:19:04;;;;;;;8.13;4.90;;;0.60;99.20;;;;;;5113621;28;20044;-69
2021/01/10 06:21:32;;;;;;;8.75;5.13;;;0.50;99.00;;;;;;5107985;28;20036;-69
2021/01/10 06:24:00;;;;;;;10.10;5.65;;;0.70;99.20;;;;;;5102344;27;20043;-72
2021/01/10 06:26:29;;;;;;;8.38;4.85;;;0.40;99.10;;;;;;5113631;28;20117;-70
2021/01/10 06:29:07;;;;;;;10.30;6.07;;;0.50;99.50;;;;;;5109670;28;20059;-69
2021/01/10 06:31:36;;;;;;;10.93;5.63;;;0.30;99.40;;;;;;5108412;28;20077;-69
2021/01/10 06:34:10;;;;;;;11.35;6.00;;;0.60;99.50;;;;;;5111382;28;20096;-70
2021/01/10 06:36:42;;;;;;;12.15;5.55;;;0.50;99.50;;;;;;5108453;28;20043;-70
2021/01/10 06:39:12;;;;;;;10.13;6.03;;;0.40;99.50;;;;;;5109840;28;20104;-69
2021/01/10 06:42:11;;;;;;;11.05;5.07;;;0.40;99.60;;;;;;5110518;28;20082;-70
2021/01/10 06:44:45;;;;;;;9.75;5.20;;;0.70;99.50;;;;;;5097662;28;20043;-70
2021/01/10 06:47:18;;;;;;;11.43;5.78;;;0.70;99.20;;;;;;5101377;28;20051;-69
2021/01/10 06:49:44;;;;;;;11.63;5.75;;;0.50;99.10;;;;;;5105644;28;20043;-69
2021/01/10 06:52:12;;;;;;;9.88;5.55;;;0.00;99.10;;;;;;5108310;27;20052;-70
2021/01/10 06:54:46;;;;;;;8.15;4.72;;;0.30;99.80;;;;;;5101961;28;20052;-70
2021/01/10 06:57:13;;;;;;;11.93;5.72;;;0.20;99.50;;;;;;5107711;28;20476;-69
2021/01/10 07:00:09;;;;;;;11.45;5.22;;;0.30;99.50;;;;;;5107058;28;20051;-69
2021/01/10 07:03:06;;;;;;;12.25;5.45;;;0.10;99.80;;;;;;5102204;28;20036;-70
2021/01/10 07:06:02;;;;;;;10.75;5.45;;;0.10;99.50;;;;;;5109501;28;20047;-70
2021/01/10 07:08:44;;;;;;;10.82;5.97;;;0.60;99.80;;;;;;5110270;28;20055;-71
2021/01/10 07:11:23;;;;;;;8.80;5.03;;;0.20;99.70;;;;;;5104599;28;20120;-70
2021/01/10 07:14:10;;;;;;;11.18;5.55;;;0.10;99.60;;;;;;5111546;28;20047;-69
2021/01/10 07:16:43;;;;;;;10.27;5.82;;;0.50;99.50;;;;;;5106822;28;20123;-70
2021/01/10 07:19:11;;;;;;;9.55;5.13;;;0.10;98.70;;;;;;5108406;28;20119;-70
2021/01/10 07:21:46;;;;;;;9.68;5.22;;;0.10;98.90;;;;;;5106969;28;20039;-69
2021/01/10 07:24:13;;;;;;;9.52;5.28;;;0.40;99.00;;;;;;5106104;28;20076;-69
2021/01/10 07:26:42;;;;;;;11.18;5.53;;;0.50;98.90;;;;;;5107875;28;20150;-70
2021/01/10 07:29:43;;;;;;;10.93;5.70;;;0.10;99.20;;;;;;5106789;28;20451;-70
2021/01/10 07:32:19;;;;;;;11.27;5.25;;;0.30;98.90;;;;;;5108217;28;20411;-69
2021/01/10 07:34:45;;;;;;;10.60;5.22;;;0.30;98.60;;;;;;5106734;28;20122;-69
2021/01/10 07:37:24;;;;;;;14.48;5.78;;;0.50;98.50;;;;;;5110865;28;20087;-69
2021/01/10 07:39:57;;;;;;;12.35;5.72;;;0.40;98.40;;;;;;5109324;28;20075;-69
2021/01/10 07:42:25;;;;;;;11.80;5.70;;;0.50;98.40;;;;;;5108461;28;20095;-69
2021/01/10 07:44:57;;;;;;;16.90;6.40;;;0.20;98.40;;;;;;5110230;28;20044;-69
2021/01/10 07:47:32;;;;;;;9.18;5.05;;;0.30;99.20;;;;;;5101869;28;20748;-69
2021/01/10 07:50:04;;;;;;;12.55;5.90;;;0.30;99.30;;;;;;5107436;28;20499;-69
2021/01/10 07:52:45;;;;;;;15.13;6.22;;;0.10;99.10;;;;;;5108399;28;20055;-70
2021/01/10 07:55:23;;;;;;;11.20;5.63;;;0.30;99.30;;;;;;5110625;28;20086;-69
2021/01/10 07:58:01;;;;;;;10.57;5.63;;;0.20;99.30;;;;;;5107604;28;20463;-70
2021/01/10 08:00:31;;;;;;;15.23;6.18;;;0.50;99.20;;;;;;5108470;28;20044;-70
2021/01/10 08:03:03;;;;;;;12.55;5.60;;;0.30;98.50;;;;;;5098619;28;20044;-69
2021/01/10 08:05:32;;;;;;;13.73;6.38;;;0.30;98.10;;;;;;5104482;28;20036;-70
2021/01/10 08:08:13;;;;;;;12.25;5.82;;;0.20;98.40;;;;;;5095766;28;20123;-70
2021/01/10 08:10:56;;;;;;;11.55;5.45;;;0.20;99.20;;;;;;5111110;28;20453;-70
2021/01/10 08:13:34;;;;;;;11.10;5.97;;;0.30;99.20;;;;;;5103626;28;20047;-70
2021/01/10 08:16:11;;;;;;;12.63;5.90;;;0.50;99.00;;;;;;5108123;28;20130;-70
2021/01/10 08:18:44;;;;;;;10.73;5.90;;;0.70;98.50;;;;;;5105205;28;20048;-70
2021/01/10 08:21:13;;;;;;;9.27;4.95;;;0.70;98.30;;;;;;5098735;28;20136;-70
2021/01/10 08:23:41;;;;;;;10.88;5.60;;;0.40;98.30;;;;;;5106598;28;20467;-70
2021/01/10 08:26:17;;;;;;;13.43;5.60;;;0.70;98.40;;;;;;5107078;28;20093;-70
2021/01/10 08:28:45;;;;;;;10.35;5.50;;;0.60;98.20;;;;;;5101172;28;20100;-70
2021/01/10 08:31:16;;;;;;;12.20;5.97;;;0.90;98.10;;;;;;5101774;28;20138;-69
2021/01/10 08:33:43;;;;;;;11.70;5.45;;;0.90;98.50;;;;;;5102037;28;20054;-70
2021/01/10 08:36:21;;;;;;;14.38;6.32;;;0.50;97.80;;;;;;5108154;28;20116;-69
2021/01/10 08:38:55;;;;;;;15.70;5.75;;;0.50;98.40;;;;;;5108406;28;20044;-70
2021/01/10 08:41:25;;;;;;;14.95;6.10;;;0.80;98.30;;;;;;5108926;28;20089;-69
2021/01/10 08:43:56;;;;;;;11.20;5.53;;;0.70;97.80;;;;;;5110343;28;20043;-70
2021/01/10 08:46:27;;;;;;;14.20;5.85;;;1.00;97.90;;;;;;5116065;28;20043;-69
2021/01/10 08:48:55;;;;;;;11.98;6.47;;;0.80;98.00;;;;;;5112281;27;20135;-69
2021/01/10 08:51:33;;;;;;;12.27;6.22;;;1.10;98.10;;;;;;5109147;28;20079;-69
2021/01/10 08:54:01;;;;;;;11.80;6.25;;;1.00;98.10;;;;;;5113028;28;20101;-70
2021/01/10 08:56:29;;;;;;;12.45;5.95;;;1.10;98.60;;;;;;5107549;28;20440;-70
2021/01/10 08:58:56;;;;;;;16.98;6.03;;;1.20;98.20;;;;;;5102150;28;20043;-70
2021/01/10 09:01:24;;;;;;;12.73;6.18;;;1.10;97.50;;;;;;5112050;28;20079;-69
2021/01/10 09:04:11;;;;;;;14.05;5.65;;;1.70;97.00;;;;;;5110344;28;20043;-70
2021/01/10 09:06:43;;;;;;;14.57;6.38;;;1.70;96.30;;;;;;5112709;28;20492;-70
2021/01/10 09:09:28;;;;;;;12.02;5.90;;;1.40;96.40;;;;;;5110421;28;20104;-69
2021/01/10 09:12:14;;;;;;;13.75;5.60;;;1.50;97.30;;;;;;5108970;28;20051;-70
2021/01/10 09:15:14;;;;;;;12.48;5.68;;;1.80;96.20;;;;;;5096802;28;20093;-69
2021/01/10 09:17:56;;;;;;;9.07;4.90;;;2.30;94.90;;;;;;5107359;28;20471;-70
2021/01/10 09:20:27;;;;;;;12.10;5.57;;;2.70;94.70;;;;;;5109348;28;20459;-69
2021/01/10 09:22:56;;;;;;;10.45;4.75;;;2.70;93.70;;;;;;5111385;28;20072;-69
2021/01/10 09:25:24;;;;;;;10.95;5.10;;;1.90;94.00;;;;;;5108222;28;20048;-69
2021/01/10 09:28:15;;;;;;;8.27;4.47;;;1.70;94.60;;;;;;5106823;28;20052;-69
2021/01/10 09:30:44;;;;;;;10.48;5.10;;;1.70;94.80;;;;;;5099816;28;20039;-70
2021/01/10 09:33:11;;;;;;;11.50;5.72;;;2.40;94.80;;;;;;5111757;28;20048;-69
2021/01/10 09:35:43;;;;;;;10.10;5.07;;;3.60;92.40;;;;;;5110275;28;20395;-70
2021/01/10 09:38:14;;;;;;;8.90;5.00;;;3.60;91.40;;;;;;5107200;28;20100;-68
2021/01/10 09:41:00;;;;;;;9.05;5.10;;;4.00;91.80;;;;;;5104559;28;20094;-69
2021/01/10 09:43:44;;;;;;;9.68;4.90;;;5.20;87.50;;;;;;5099568;28;20571;-70
2021/01/10 09:46:34;;;;;;;12.35;4.88;;;4.80;84.50;;;;;;5098720;28;20075;-68
2021/01/10 09:49:15;;;;;;;9.65;5.05;;;3.70;89.90;;;;;;5103829;28;20055;-76
2021/01/10 09:51:50;;;;;;;10.23;5.13;;;3.50;90.60;;;;;;5107731;28;20055;-70
2021/01/10 09:54:18;;;;;;;9.20;4.90;;;3.00;91.30;;;;;;5102623;28;20131;-74
2021/01/10 09:56:49;;;;;;;8.27;5.03;;;3.40;91.00;;;;;;5102878;27;20079;-70
2021/01/10 09:59:39;;;;;;;10.40;5.63;;;4.70;88.50;;;;;;5104595;28;20044;-70
2021/01/10 10:02:20;;;;;;;15.27;6.57;;;3.80;88.30;;;;;;5106366;27;20059;-70
2021/01/10 10:04:49;;;;;;;9.85;4.85;;;3.80;90.30;;;;;;5095127;28;20075;-74
2021/01/10 10:07:35;;;;;;;8.35;4.82;;;4.30;88.60;;;;;;5106545;28;20105;-70
2021/01/10 10:10:19;;;;;;;7.75;4.68;;;3.60;88.60;;;;;;5100497;28;20101;-69
2021/01/10 10:13:07;;;;;;;11.57;5.53;;;4.10;90.00;;;;;;5101043;27;20055;-69
2021/01/10 10:15:43;;;;;;;7.30;4.18;;;4.60;87.60;;;;;;5101476;27;20043;-68
2021/01/10 10:18:18;;;;;;;8.32;4.80;;;4.20;86.00;;;;;;5101211;28;20093;-67
2021/01/10 10:20:44;;;;;;;10.70;4.57;;;3.90;87.50;;;;;;5103956;28;20054;-69
2021/01/10 10:23:13;;;;;;;10.48;4.95;;;4.20;89.30;;;;;;5108705;28;20051;-67
2021/01/10 10:25:46;;;;;;;7.75;4.65;;;4.20;89.20;;;;;;5104253;27;20179;-73
2021/01/10 10:28:12;;;;;;;8.02;4.43;;;3.60;89.70;;;;;;5102616;28;20089;-70
2021/01/10 10:30:39;;;;;;;7.05;4.35;;;3.50;90.00;;;;;;5105026;28;20071;-68
2021/01/10 10:33:06;;;;;;;8.60;4.93;;;3.40;89.40;;;;;;5103032;27;20079;-67
2021/01/10 10:35:33;;;;;;;7.32;4.20;;;4.80;86.70;;;;;;5106560;28;20116;-74
2021/01/10 10:38:00;;;;;;;7.50;4.35;;;6.90;78.20;;;;;;5097223;27;20752;-68
2021/01/10 10:40:27;;;;;;;8.05;4.53;;;7.10;74.50;;;;;;5105171;27;20040;-68
2021/01/10 10:42:53;;;;;;;7.53;4.30;;;7.20;72.50;;;;;;5102577;28;20131;-69
2021/01/10 10:45:20;;;;;;;6.70;3.83;;;7.90;69.00;;;;;;5097807;28;20410;-69
2021/01/10 10:47:46;;;;;;;8.90;4.55;;;7.00;67.50;;;;;;5100951;28;20119;-71
2021/01/10 10:50:13;;;;;;;7.30;3.92;;;6.50;73.30;;;;;;5104266;28;20104;-68
2021/01/10 10:52:42;;;;;;;8.52;4.75;;;7.70;71.20;;;;;;5101652;28;20105;-71
2021/01/10 10:55:11;;;;;;;9.18;4.88;;;8.30;67.50;;;;;;5101823;28;20479;-70
2021/01/10 10:57:40;;;;;;;8.05;4.63;;;6.70;71.30;;;;;;5102721;28;20051;-69
2021/01/10 11:00:07;;;;;;;6.85;3.92;;;6.40;71.70;;;;;;5091629;28;20483;-70
2021/01/10 11:02:33;;;;;;;9.77;4.78;;;5.80;71.90;;;;;;5092470;28;20040;-70
2021/01/10 11:05:00;;;;;;;9.73;4.80;;;5.60;72.10;;;;;;5092318;28;20066;-69
2021/01/10 11:07:26;;;;;;;10.38;5.13;;;5.40;75.40;;;;;;5110270;28;20048;-70
2021/01/10 11:09:53;;;;;;;9.30;5.03;;;4.90;78.30;;;;;;5104337;28;20131;-68
2021/01/10 11:12:19;;;;;;;9.57;5.25;;;4.60;80.30;;;;;;5108438;28;20048;-69
2021/01/10 11:14:45;;;;;;;12.20;5.40;;;4.70;81.50;;;;;;5109138;28;20074;-69
2021/01/10 11:17:15;;;;;;;9.07;5.05;;;4.30;82.00;;;;;;5101068;28;20116;-68
2021/01/10 11:19:41;;;;;;;8.82;5.20;;;4.40;81.80;;;;;;5103842;28;20035;-69
2021/01/10 11:22:08;;;;;;;10.40;5.40;;;4.40;82.80;;;;;;5107582;28;20048;-68
2021/01/10 11:24:35;;;;;;;9.43;5.45;;;4.30;82.80;;;;;;5108153;28;20046;-69
2021/01/10 11:27:02;;;;;;;10.00;5.13;;;4.20;83.20;;;;;;5099239;28;20052;-69
2021/01/10 11:29:29;;;;;;;9.50;5.07;;;4.10;83.30;;;;;;5103608;28;20158;-69
2021/01/10 11:31:56;;;;;;;8.75;4.78;;;4.20;83.60;;;;;;5103196;28;20044;-70
2021/01/10 11:34:23;;;;;;;8.55;4.82;;;4.20;82.30;;;;;;5107458;28;20141;-69
2021/01/10 11:36:54;;;;;;;9.02;5.07;;;4.30;82.70;;;;;;5105936;28;20075;-70
2021/01/10 11:39:22;;;;;;;11.20;5.38;;;4.00;82.30;;;;;;5105989;28;20447;-68
2021/01/10 11:41:50;;;;;;;7.80;4.65;;;4.00;82.20;;;;;;5105691;28;20043;-69
2021/01/10 11:44:18;;;;;;;10.68;4.80;;;4.00;82.90;;;;;;5104250;28;20474;-69
2021/01/10 11:46:47;;;;;;;10.73;5.25;;;4.00;82.80;;;;;;5093033;28;20132;-69
2021/01/10 11:49:14;;;;;;;9.93;5.40;;;4.10;83.20;;;;;;5106117;28;20067;-70
2021/01/10 11:51:40;;;;;;;9.50;5.38;;;4.10;83.50;;;;;;5109349;27;20143;-70
2021/01/10 11:54:08;;;;;;;8.35;5.13;;;4.00;83.10;;;;;;5106673;28;20504;-69
2021/01/10 11:56:34;;;;;;;10.00;5.18;;;3.70;83.90;;;;;;5105916;28;20078;-69
2021/01/10 11:59:02;;;;;;;11.15;6.05;;;3.90;85.60;;;;;;5100587;28;20035;-70
2021/01/10 12:01:36;;;;;;;12.90;6.28;;;3.90;85.60;;;;;;5100916;28;20101;-70
2021/01/10 12:04:06;;;;;;;10.68;6.25;;;3.90;86.80;;;;;;5096957;28;20066;-69
2021/01/10 12:06:34;;;;;;;9.13;5.05;;;4.20;86.90;;;;;;5106437;28;20445;-69
2021/01/10 12:09:01;;;;;;;9.20;5.15;;;4.40;83.70;;;;;;5104891;28;20044;-69
2021/01/10 12:11:28;;;;;;;9.77;4.95;;;4.50;83.30;;;;;;5107612;27;20109;-70
2021/01/10 12:13:55;;;;;;;9.13;4.65;;;5.10;83.00;;;;;;5106938;28;20113;-69
2021/01/10 12:16:22;;;;;;;7.82;4.53;;;5.20;81.50;;;;;;5103283;28;20455;-69
2021/01/10 12:18:48;;;;;;;7.88;4.93;;;5.00;80.20;;;;;;5100213;28;20079;-69
2021/01/10 12:21:15;;;;;;;8.50;4.30;;;5.10;80.10;;;;;;5106618;28;20047;-69
2021/01/10 12:23:42;;;;;;;10.27;4.47;;;5.20;80.00;;;;;;5104355;28;20517;-70
2021/01/10 12:26:10;;;;;;;5.53;3.15;;;5.30;80.60;;;;;;5107735;28;20066;-69
2021/01/10 12:28:37;;;;;;;6.72;3.42;;;5.60;76.80;;;;;;5107649;28;20047;-69
2021/01/10 12:31:04;;;;;;;7.50;3.75;;;5.40;76.90;;;;;;5104810;28;20459;-70
2021/01/10 12:33:37;;;;;;;6.80;3.45;;;6.00;75.00;;;;;;5102448;28;20109;-69
2021/01/10 12:36:05;;;;;;;5.40;3.15;;;5.70;74.40;;;;;;5105391;28;20079;-69
2021/01/10 12:38:31;;;;;;;6.03;3.22;;;6.00;73.90;;;;;;5103220;28;20131;-69
2021/01/10 12:40:57;;;;;;;7.88;3.13;;;6.20;74.10;;;;;;5107811;28;20050;-69
2021/01/10 12:43:24;;;;;;;6.13;3.70;;;6.30;72.50;;;;;;5105926;28;20413;-69
2021/01/10 12:45:50;;;;;;;6.53;3.67;;;6.10;72.40;;;;;;5105227;28;20044;-69
2021/01/10 12:48:18;;;;;;;6.03;3.65;;;5.90;73.10;;;;;;5101147;28;20050;-69
2021/01/10 12:50:47;;;;;;;7.63;3.80;;;5.40;74.10;;;;;;5107046;28;20447;-69
2021/01/10 12:53:14;;;;;;;7.05;3.67;;;5.30;74.60;;;;;;5103421;28;20425;-69
2021/01/10 12:55:40;;;;;;;7.57;4.55;;;5.80;75.10;;;;;;5106607;28;20109;-69
2021/01/10 12:58:06;;;;;;;10.48;3.90;;;5.50;74.60;;;;;;5105171;28;20044;-69
2021/01/10 13:00:33;;;;;;;5.38;3.00;;;5.40;74.10;;;;;;5095768;28;20048;-69
2021/01/10 13:02:59;;;;;;;4.15;2.72;;;5.10;73.50;;;;;;5102736;28;20067;-69
2021/01/10 13:05:26;;;;;;;4.72;2.90;;;4.80;73.30;;;;;;5103379;28;20418;-68
2021/01/10 13:07:52;;;;;;;5.00;3.25;;;4.90;74.10;;;;;;5104462;28;20062;-72
2021/01/10 13:10:19;;;;;;;7.05;3.40;;;4.90;74.00;;;;;;5100064;28;20056;-73